Time;durP1;ratioP1;P1;durP2;ratioP2;P2;SDS_P1;SDS_P2;PMS_P1;PMS_P2;Temp;Humidity;BMP_temperature;BMP_pressure;BME280_temperature;BME280_humidity;BME280_pressure;Samples;Min_cycle;Max_cycle;Signal;HPM_P1;HPM_P2
2022/11/18 00:01:14;;;;;;;4.10;1.10;;;13.50;83.20;13.60;94755.00;;;;5013391;28;20194;-88
2022/11/18 00:03:43;;;;;;;0.70;0.63;;;13.50;83.20;13.70;94758.00;;;;5024431;28;20228;-88
2022/11/18 00:06:15;;;;;;;1.17;0.53;;;13.50;83.20;13.60;94763.00;;;;5017063;28;20289;-88
2022/11/18 00:08:43;;;;;;;0.60;0.60;;;13.50;83.20;13.60;94764.00;;;;5007554;28;20780;-88
2022/11/18 00:14:17;;;;;;;0.93;0.67;;;13.50;83.20;13.60;94761.00;;;;4993711;28;20570;-88
2022/11/18 00:16:44;;;;;;;1.83;0.80;;;13.50;83.20;13.60;94763.00;;;;4999684;28;20562;-88
2022/11/18 00:19:11;;;;;;;1.17;0.60;;;13.50;83.20;13.60;94752.00;;;;5005301;28;20244;-89
2022/11/18 00:21:40;;;;;;;1.13;0.40;;;13.50;83.30;13.70;94750.00;;;;5012511;28;20624;-88
2022/11/18 00:24:07;;;;;;;8.03;1.30;;;13.50;83.20;13.70;94759.00;;;;5011863;28;20280;-88
2022/11/18 00:26:35;;;;;;;4.93;0.90;;;13.50;84.00;13.70;94749.00;;;;5005220;28;20285;-88
2022/11/18 00:29:03;;;;;;;2.37;0.73;;;13.60;83.50;13.70;94755.00;;;;5011079;28;20210;-88
2022/11/18 00:31:30;;;;;;;0.50;0.50;;;13.50;83.40;13.70;94746.00;;;;5024606;28;20651;-89
2022/11/18 00:33:57;;;;;;;1.43;0.63;;;13.60;84.30;13.80;94750.00;;;;5029660;28;20233;-88
2022/11/18 00:36:24;;;;;;;1.33;0.40;;;13.60;83.70;13.80;94754.00;;;;5012450;28;20206;-88
2022/11/18 00:38:53;;;;;;;0.70;0.40;;;13.70;83.70;13.80;94735.00;;;;5017917;28;20631;-88
2022/11/18 00:41:21;;;;;;;1.83;0.63;;;13.60;83.70;13.80;94744.00;;;;5012240;28;20225;-88
2022/11/18 00:43:47;;;;;;;1.97;0.70;;;13.60;83.70;13.80;94737.00;;;;5017819;28;20302;-88
2022/11/18 00:46:14;;;;;;;0.70;0.67;;;13.60;83.70;13.80;94729.00;;;;5028172;28;20208;-88
2022/11/18 00:48:42;;;;;;;1.60;0.60;;;13.70;83.60;13.80;94727.00;;;;5030968;28;20721;-89
2022/11/18 00:51:13;;;;;;;5.73;0.57;;;13.60;83.40;13.80;94730.00;;;;5026857;28;20226;-88
2022/11/18 00:53:40;;;;;;;0.70;0.50;;;13.70;83.50;13.80;94719.00;;;;5020670;28;20730;-88
2022/11/18 00:56:10;;;;;;;0.60;0.60;;;13.70;83.50;13.80;94729.00;;;;5009396;28;20202;-89
2022/11/18 00:58:38;;;;;;;5.73;0.93;;;13.60;84.10;13.80;94731.00;;;;5020754;28;20213;-88
2022/11/18 01:01:06;;;;;;;10.03;1.00;;;13.70;83.30;13.80;94724.00;;;;5018758;28;20296;-88
2022/11/18 01:03:33;;;;;;;2.80;0.67;;;13.60;83.30;13.80;94728.00;;;;5023418;28;20261;-88
2022/11/18 01:06:00;;;;;;;3.17;0.40;;;13.70;83.40;13.80;94716.00;;;;5021066;28;20239;-89
2022/11/18 01:08:27;;;;;;;10.13;0.87;;;13.70;83.50;13.80;94704.00;;;;5026551;28;20285;-87
2022/11/18 01:13:17;;;;;;;21.97;2.53;;;13.60;83.40;13.80;94719.00;;;;5012126;28;20221;-88
2022/11/18 01:13:42;;;;;;;18.03;1.43;;;13.70;83.40;13.90;94705.00;;;;5013518;28;20323;-88
2022/11/18 01:16:09;;;;;;;13.90;0.87;;;13.70;83.40;13.80;94702.00;;;;5015145;28;20675;-88
2022/11/18 01:18:36;;;;;;;2.97;0.73;;;13.70;83.40;13.80;94712.00;;;;5014139;28;20244;-88
2022/11/18 01:21:05;;;;;;;1.07;0.37;;;13.70;83.40;13.80;94711.00;;;;5006331;28;20746;-88
2022/11/18 01:23:32;;;;;;;8.70;0.87;;;13.70;83.40;13.80;94709.00;;;;5026088;28;20226;-88
2022/11/18 01:26:06;;;;;;;0.30;0.30;;;13.70;83.30;13.90;94716.00;;;;5009245;28;20202;-88
2022/11/18 01:28:33;;;;;;;0.97;0.50;;;13.70;83.20;13.80;94706.00;;;;5013321;28;20347;-89
2022/11/18 01:31:07;;;;;;;2.00;0.47;;;13.70;83.30;13.90;94699.00;;;;5015716;28;20328;-88
2022/11/18 01:33:34;;;;;;;14.47;1.43;;;13.70;83.20;13.80;94710.00;;;;5011580;28;20489;-88
2022/11/18 01:36:01;;;;;;;2.67;0.70;;;13.70;83.30;13.80;94714.00;;;;5025437;28;20225;-88
2022/11/18 01:38:29;;;;;;;7.30;1.30;;;13.80;83.30;13.80;94703.00;;;;5010190;28;20281;-88
2022/11/18 01:40:58;;;;;;;7.30;0.80;;;13.70;84.10;13.80;94709.00;;;;5011885;28;20280;-88
2022/11/18 01:43:25;;;;;;;3.50;0.57;;;13.70;83.40;13.80;94702.00;;;;5012069;28;20765;-88
2022/11/18 01:45:53;;;;;;;0.60;0.40;;;13.20;83.00;13.80;94696.00;;;;5008581;28;20229;-88
2022/11/18 01:48:27;;;;;;;22.30;2.33;;;13.70;83.40;13.80;94699.00;;;;5012618;28;20202;-88
2022/11/18 01:51:00;;;;;;;0.50;0.40;;;13.70;83.50;13.80;94703.00;;;;5009694;28;20280;-88
2022/11/18 01:53:34;;;;;;;5.63;0.80;;;13.70;83.60;13.80;94706.00;;;;5011198;28;20356;-88
2022/11/18 01:56:08;;;;;;;5.37;0.50;;;13.70;83.50;13.80;94692.00;;;;5011261;28;20289;-88
2022/11/18 01:58:39;;;;;;;23.43;2.40;;;13.70;83.50;13.80;94691.00;;;;5019324;28;20268;-88
2022/11/18 02:01:07;;;;;;;2.10;0.50;;;13.70;83.50;13.80;94688.00;;;;5015514;28;20734;-88
2022/11/18 02:03:37;;;;;;;3.37;0.83;;;13.60;83.40;13.80;94682.00;;;;5013964;28;20217;-88
2022/11/18 02:06:07;;;;;;;27.43;2.90;;;13.60;83.40;13.80;94692.00;;;;5012851;28;20634;-88
2022/11/18 02:08:38;;;;;;;27.00;1.90;;;13.60;83.40;13.80;94689.00;;;;5012220;28;20207;-88
2022/11/18 02:11:49;;;;;;;0.90;0.60;;;13.60;83.40;13.80;94689.00;;;;5010378;28;20207;-88
2022/11/18 02:13:57;;;;;;;4.50;0.73;;;13.60;83.40;13.80;94688.00;;;;5010429;28;20230;-88
2022/11/18 02:16:40;;;;;;;7.70;0.63;;;13.60;83.30;13.70;94676.00;;;;5009161;28;20587;-88
2022/11/18 02:19:32;;;;;;;1.33;0.40;;;13.60;83.30;13.70;94669.00;;;;5008714;28;20196;-88
2022/11/18 02:22:19;;;;;;;0.70;0.40;;;13.60;83.30;13.70;94678.00;;;;5012556;28;20229;-87
2022/11/18 02:25:00;;;;;;;2.17;0.40;;;13.60;84.00;13.70;94679.00;;;;5011652;28;20245;-88
2022/11/18 02:28:14;;;;;;;1.27;0.70;;;13.60;83.00;13.70;94681.00;;;;5014700;28;20289;-88
2022/11/18 02:30:52;;;;;;;1.60;0.40;;;13.60;83.10;13.60;94676.00;;;;5002372;28;20653;-88
2022/11/18 02:33:29;;;;;;;4.53;0.70;;;13.50;83.20;13.60;94684.00;;;;5021369;28;20222;-88
2022/11/18 02:36:06;;;;;;;1.80;0.40;;;13.50;83.20;13.60;94681.00;;;;5014993;28;20284;-88
2022/11/18 02:38:42;;;;;;;6.17;0.97;;;13.50;83.20;13.60;94688.00;;;;5015536;28;20212;-88
2022/11/18 02:41:18;;;;;;;0.67;0.37;;;13.50;83.20;13.60;94685.00;;;;5018310;28;20281;-88
2022/11/18 02:43:49;;;;;;;0.40;0.30;;;13.50;83.20;13.50;94688.00;;;;5018837;28;20252;-88
2022/11/18 02:46:25;;;;;;;4.73;0.53;;;13.40;83.10;13.50;94688.00;;;;4996111;28;20217;-87
2022/11/18 02:48:54;;;;;;;5.00;0.77;;;13.40;83.20;13.50;94690.00;;;;5014681;28;20280;-88
2022/11/18 02:51:27;;;;;;;5.70;0.70;;;13.40;83.40;13.50;94681.00;;;;5014202;28;20285;-88
2022/11/18 02:53:58;;;;;;;1.43;0.40;;;13.40;83.40;13.50;94693.00;;;;5024665;28;20236;-88
2022/11/18 02:56:28;;;;;;;10.23;1.40;;;13.40;83.50;13.50;94689.00;;;;5015068;28;20691;-88
2022/11/18 02:58:55;;;;;;;3.07;0.67;;;13.40;83.50;13.50;94693.00;;;;5014771;28;20213;-88
2022/11/18 03:01:28;;;;;;;1.93;0.30;;;13.40;83.50;13.50;94680.00;;;;5014505;28;20233;-88
2022/11/18 03:03:55;;;;;;;0.40;0.40;;;13.40;83.50;13.50;94690.00;;;;5026303;28;20263;-89
2022/11/18 03:06:32;;;;;;;0.77;0.30;;;13.40;83.50;13.50;94692.00;;;;5034126;28;20636;-87
2022/11/18 03:09:12;;;;;;;1.00;0.60;;;13.40;83.50;13.50;94685.00;;;;5018451;28;20256;-88
2022/11/18 03:11:49;;;;;;;2.53;0.40;;;13.40;83.60;13.40;94685.00;;;;4994707;28;20273;-88
2022/11/18 03:14:28;;;;;;;7.43;0.50;;;13.40;83.50;13.40;94691.00;;;;4994099;28;20666;-88
2022/11/18 03:17:02;;;;;;;5.40;0.80;;;13.30;83.40;13.40;94689.00;;;;5001825;28;20240;-88
2022/11/18 03:19:58;;;;;;;2.63;0.70;;;13.30;83.70;13.40;94683.00;;;;5020129;28;20205;-87
2022/11/18 03:22:32;;;;;;;2.30;0.50;;;13.30;83.70;13.40;94691.00;;;;5010867;28;20226;-87
2022/11/18 03:25:08;;;;;;;0.50;0.40;;;13.30;83.80;13.40;94695.00;;;;5015842;28;20268;-87
2022/11/18 03:27:40;;;;;;;2.80;0.53;;;13.30;84.00;13.30;94692.00;;;;5014681;28;20281;-87
2022/11/18 03:30:12;;;;;;;4.13;0.50;;;13.30;84.10;13.30;94691.00;;;;5001333;28;20201;-87
2022/11/18 03:32:47;;;;;;;6.90;1.10;;;13.30;84.20;13.30;94692.00;;;;5010339;28;20258;-87
2022/11/18 03:35:22;;;;;;;1.80;0.60;;;13.30;84.30;13.30;94697.00;;;;5018724;28;20284;-86
2022/11/18 03:37:54;;;;;;;2.47;0.53;;;13.20;84.30;13.30;94691.00;;;;5016590;28;20279;-86
2022/11/18 03:40:28;;;;;;;0.63;0.47;;;13.20;84.40;13.30;94698.00;;;;5025435;28;20225;-87
2022/11/18 03:43:04;;;;;;;6.87;0.80;;;13.20;84.50;13.30;94685.00;;;;5011809;28;21921;-86
2022/11/18 03:45:37;;;;;;;0.57;0.47;;;13.20;84.60;13.30;94692.00;;;;5007993;28;20279;-87
2022/11/18 03:48:11;;;;;;;0.50;0.40;;;13.20;84.80;13.30;94672.00;;;;5002874;28;20201;-87
2022/11/18 03:50:44;;;;;;;10.90;1.10;;;13.20;84.90;13.20;94684.00;;;;4994533;28;20186;-87
2022/11/18 03:53:14;;;;;;;3.67;0.60;;;13.10;84.90;13.20;94702.00;;;;5013295;28;20250;-87
2022/11/18 03:55:52;;;;;;;7.70;1.27;;;13.20;85.00;13.20;94695.00;;;;5013549;28;20228;-87
2022/11/18 03:58:27;;;;;;;0.57;0.30;;;13.10;85.10;13.30;94702.00;;;;5012145;28;20206;-86
2022/11/18 04:01:08;;;;;;;0.33;0.30;;;13.20;85.20;13.20;94688.00;;;;5013542;28;20283;-87
2022/11/18 04:03:37;;;;;;;5.20;0.60;;;13.20;85.20;13.20;94698.00;;;;5012713;28;20245;-86
2022/11/18 04:06:21;;;;;;;0.70;0.30;;;13.20;85.20;13.20;94716.00;;;;5013314;28;20491;-87
2022/11/18 04:08:55;;;;;;;0.60;0.30;;;13.10;85.20;13.20;94707.00;;;;4996349;28;20219;-87
2022/11/18 04:14:18;;;;;;;4.80;0.67;;;13.10;85.30;13.20;94718.00;;;;5008938;28;20332;-86
2022/11/18 04:16:50;;;;;;;0.57;0.27;;;13.10;85.40;13.20;94726.00;;;;5012439;28;20296;-87
2022/11/18 04:19:18;;;;;;;0.97;0.40;;;13.10;85.40;13.20;94726.00;;;;5025610;28;20304;-86
2022/11/18 04:21:47;;;;;;;1.27;0.60;;;13.20;85.50;13.20;94726.00;;;;5028522;28;20300;-87
2022/11/18 04:24:14;;;;;;;2.43;0.40;;;13.10;85.40;13.20;94722.00;;;;5019574;28;20238;-86
2022/11/18 04:26:41;;;;;;;6.70;1.00;;;13.10;85.30;13.20;94738.00;;;;5024942;28;20668;-87
2022/11/18 04:29:08;;;;;;;1.10;0.43;;;13.10;85.40;13.20;94732.00;;;;5018870;28;20252;-87
2022/11/18 04:31:35;;;;;;;1.43;0.40;;;13.10;86.30;13.20;94730.00;;;;5011453;28;20296;-86
2022/11/18 04:34:02;;;;;;;0.43;0.40;;;13.10;85.70;13.20;94728.00;;;;5012760;28;20229;-86
2022/11/18 04:36:31;;;;;;;1.03;0.30;;;13.10;85.60;13.20;94737.00;;;;5021807;28;20241;-86
2022/11/18 04:38:58;;;;;;;0.50;0.40;;;13.10;85.50;13.20;94732.00;;;;5018922;28;20229;-86
2022/11/18 04:41:54;;;;;;;0.70;0.50;;;13.10;85.50;13.20;94733.00;;;;5012266;28;20667;-87
2022/11/18 04:44:12;;;;;;;1.30;0.60;;;13.10;85.50;13.10;94729.00;;;;5011083;28;20225;-86
2022/11/18 04:46:41;;;;;;;1.47;0.80;;;13.10;85.50;13.10;94727.00;;;;5010944;28;20202;-87
2022/11/18 04:49:09;;;;;;;0.83;0.63;;;13.10;85.60;13.10;94729.00;;;;5009549;28;20209;-86
2022/11/18 04:51:37;;;;;;;0.40;0.40;;;13.10;85.60;13.10;94725.00;;;;5014882;28;20256;-87
2022/11/18 04:54:06;;;;;;;1.00;0.47;;;13.10;85.70;13.10;94732.00;;;;5016111;28;20519;-87
2022/11/18 04:56:33;;;;;;;2.17;0.47;;;13.10;85.80;13.10;94727.00;;;;5011897;28;20694;-86
2022/11/18 04:59:02;;;;;;;1.33;0.53;;;13.10;85.80;13.10;94733.00;;;;5015204;28;20277;-87
2022/11/18 05:01:30;;;;;;;1.23;0.90;;;13.10;85.80;13.20;94733.00;;;;5011745;28;20198;-87
2022/11/18 05:03:59;;;;;;;1.43;0.60;;;13.10;85.80;13.20;94736.00;;;;5012895;28;20253;-87
2022/11/18 05:06:26;;;;;;;6.20;1.17;;;13.10;85.70;13.20;94726.00;;;;5011636;28;20230;-87
2022/11/18 05:08:55;;;;;;;5.53;0.80;;;13.10;85.80;13.20;94724.00;;;;5005275;28;20715;-86
2022/11/18 05:14:06;;;;;;;6.20;1.10;;;13.10;85.90;13.20;94713.00;;;;5014933;28;20601;-87
2022/11/18 05:16:33;;;;;;;0.40;0.40;;;13.10;86.00;13.20;94721.00;;;;5012804;28;20735;-86
2022/11/18 05:19:03;;;;;;;1.23;0.60;;;13.10;86.00;13.20;94728.00;;;;5017124;28;20233;-87
2022/11/18 05:21:30;;;;;;;0.40;0.40;;;13.10;86.00;13.20;94714.00;;;;5009860;28;20197;-87
2022/11/18 05:23:59;;;;;;;2.10;0.50;;;13.10;85.90;13.20;94716.00;;;;5013770;28;20305;-87
2022/11/18 05:26:26;;;;;;;9.53;0.93;;;13.10;86.00;13.30;94718.00;;;;5018135;28;20248;-87
2022/11/18 05:28:54;;;;;;;9.00;1.30;;;13.10;86.60;13.30;94710.00;;;;5018545;28;20281;-86
2022/11/18 05:31:21;;;;;;;3.63;0.50;;;13.10;86.00;13.30;94719.00;;;;5020962;28;20284;-87
2022/11/18 05:33:48;;;;;;;0.50;0.40;;;13.10;85.90;13.30;94709.00;;;;5018839;28;20253;-86
2022/11/18 05:36:18;;;;;;;1.83;0.40;;;13.10;85.90;13.30;94716.00;;;;5018113;28;20305;-87
2022/11/18 05:38:46;;;;;;;0.70;0.37;;;13.20;85.90;13.30;94717.00;;;;5018920;28;20227;-87
2022/11/18 05:43:09;;;;;;;1.47;0.33;;;13.10;85.80;13.30;94717.00;;;;5025244;28;20280;-87
2022/11/18 05:44:02;;;;;;;4.77;0.87;;;13.20;85.80;13.30;94714.00;;;;5014805;28;20229;-87
2022/11/18 05:46:30;;;;;;;0.40;0.40;;;13.20;85.90;13.30;94717.00;;;;5021252;28;20195;-87
2022/11/18 05:48:57;;;;;;;15.07;1.07;;;13.20;85.80;13.30;94713.00;;;;5018702;28;20290;-86
2022/11/18 05:51:25;;;;;;;8.90;0.90;;;13.20;85.70;13.30;94715.00;;;;5018073;28;20284;-86
2022/11/18 05:53:53;;;;;;;0.90;0.60;;;13.20;86.40;13.30;94709.00;;;;5021742;28;20257;-88
2022/11/18 05:56:28;;;;;;;4.80;0.77;;;13.20;85.60;13.30;94713.00;;;;5021969;28;20281;-88
2022/11/18 05:58:56;;;;;;;0.50;0.50;;;13.20;85.40;13.30;94720.00;;;;5020148;28;20233;-87
2022/11/18 06:01:28;;;;;;;4.27;0.80;;;13.20;85.30;13.30;94716.00;;;;5025138;28;20675;-87
2022/11/18 06:03:56;;;;;;;0.40;0.40;;;13.20;85.20;13.30;94717.00;;;;5020854;28;20303;-87
2022/11/18 06:06:25;;;;;;;0.93;0.40;;;13.20;85.20;13.20;94724.00;;;;5029700;28;20405;-87
2022/11/18 06:09:00;;;;;;;4.17;0.80;;;13.20;85.20;13.30;94718.00;;;;5025798;28;20225;-87
2022/11/18 06:11:31;;;;;;;1.53;0.50;;;13.20;85.00;13.30;94720.00;;;;5018421;28;20258;-87
2022/11/18 06:14:05;;;;;;;0.27;0.27;;;13.20;85.10;13.20;94724.00;;;;5021531;28;20273;-87
2022/11/18 06:16:37;;;;;;;5.10;0.60;;;13.20;85.00;13.30;94729.00;;;;5025157;28;20287;-87
2022/11/18 06:19:04;;;;;;;0.40;0.40;;;13.20;84.90;13.30;94733.00;;;;5029354;28;21046;-87
2022/11/18 06:21:31;;;;;;;2.10;0.20;;;13.20;85.00;13.30;94729.00;;;;5020618;28;20217;-87
2022/11/18 06:24:01;;;;;;;1.17;0.30;;;13.10;84.90;13.20;94732.00;;;;5022899;28;20222;-87
2022/11/18 06:26:29;;;;;;;0.70;0.40;;;13.10;84.70;13.20;94732.00;;;;5018781;28;20212;-86
2022/11/18 06:28:58;;;;;;;0.53;0.43;;;13.10;84.70;13.20;94726.00;;;;5013819;28;20288;-87
2022/11/18 06:31:25;;;;;;;0.33;0.33;;;13.10;84.60;13.20;94734.00;;;;5018949;28;20193;-86
2022/11/18 06:33:52;;;;;;;1.90;0.90;;;13.10;84.60;13.20;94724.00;;;;5032177;28;20233;-87
2022/11/18 06:36:19;;;;;;;0.30;0.30;;;13.10;84.70;13.20;94737.00;;;;5018578;28;20198;-88
2022/11/18 06:38:46;;;;;;;1.27;0.30;;;13.20;84.60;13.20;94738.00;;;;5024977;28;20281;-88
2022/11/18 06:41:13;;;;;;;1.37;0.40;;;13.10;85.20;13.20;94745.00;;;;5011957;28;20237;-89
2022/11/18 06:43:42;;;;;;;1.40;0.30;;;13.10;84.50;13.20;94751.00;;;;5017094;28;20222;-87
2022/11/18 06:48:56;;;;;;;1.03;0.60;;;13.10;84.30;13.20;94752.00;;;;5021184;28;20201;-88
2022/11/18 06:51:24;;;;;;;1.10;0.50;;;13.10;84.30;13.20;94763.00;;;;5016927;28;20217;-88
2022/11/18 06:53:52;;;;;;;2.33;0.50;;;13.10;84.30;13.20;94753.00;;;;5018451;28;20241;-88
2022/11/18 06:56:44;;;;;;;1.23;0.40;;;13.10;84.30;13.30;94751.00;;;;5024021;28;20197;-88
2022/11/18 06:59:14;;;;;;;1.77;0.50;;;13.10;84.00;13.20;94772.00;;;;5014995;28;20289;-89
2022/11/18 07:01:41;;;;;;;0.50;0.40;;;13.10;84.10;13.30;94784.00;;;;5021878;28;20292;-88
2022/11/18 07:04:08;;;;;;;1.23;0.60;;;13.10;84.10;13.20;94775.00;;;;5028483;28;20229;-87
2022/11/18 07:06:37;;;;;;;0.77;0.40;;;13.10;84.00;13.20;94784.00;;;;5029091;28;20743;-88
2022/11/18 07:09:07;;;;;;;0.63;0.40;;;13.00;84.50;13.20;94793.00;;;;5023686;28;20225;-88
2022/11/18 07:11:37;;;;;;;2.67;0.60;;;13.10;84.20;13.20;94802.00;;;;5015205;28;20234;-88
2022/11/18 07:14:04;;;;;;;0.40;0.40;;;13.10;84.30;13.20;94805.00;;;;5024176;28;20221;-88
2022/11/18 07:16:37;;;;;;;0.60;0.50;;;13.10;84.30;13.30;94801.00;;;;5028576;28;20304;-88
2022/11/18 07:19:10;;;;;;;1.20;1.07;;;13.10;84.40;13.30;94801.00;;;;5019429;28;20198;-89
2022/11/18 07:21:38;;;;;;;6.87;0.80;;;13.10;84.40;13.30;94804.00;;;;5014827;28;20202;-88
2022/11/18 07:24:12;;;;;;;2.90;1.43;;;13.10;84.50;13.30;94804.00;;;;5025166;28;20295;-89
2022/11/18 07:26:39;;;;;;;2.97;1.50;;;13.10;84.60;13.40;94809.00;;;;5029913;28;20202;-90
2022/11/18 07:29:07;;;;;;;1.57;0.70;;;13.20;84.60;13.40;94804.00;;;;5019814;28;20202;-89
2022/11/18 07:31:38;;;;;;;0.50;0.50;;;13.20;84.70;13.40;94817.00;;;;5034029;28;20208;-89
2022/11/18 07:34:06;;;;;;;2.10;0.90;;;13.20;84.60;13.40;94823.00;;;;5009819;28;20249;-89
2022/11/18 07:36:36;;;;;;;0.60;0.60;;;13.20;84.70;13.50;94822.00;;;;5015082;28;20229;-88
2022/11/18 07:39:06;;;;;;;1.23;0.50;;;13.30;84.60;13.50;94829.00;;;;5017115;28;20237;-87
2022/11/18 07:41:33;;;;;;;1.43;0.70;;;13.30;84.50;13.50;94828.00;;;;5029029;28;20218;-88
2022/11/18 07:44:04;;;;;;;4.87;1.00;;;13.30;84.40;13.50;94842.00;;;;5016089;28;20224;-88
2022/11/18 07:46:33;;;;;;;1.20;0.30;;;13.30;84.30;13.40;94833.00;;;;5016641;28;20194;-88
2022/11/18 07:49:05;;;;;;;1.17;0.40;;;13.30;84.20;13.40;94843.00;;;;5020509;28;20322;-89
2022/11/18 07:51:35;;;;;;;0.40;0.40;;;13.30;83.90;13.40;94847.00;;;;5022414;28;20697;-88
2022/11/18 07:54:06;;;;;;;0.30;0.30;;;13.30;83.80;13.40;94853.00;;;;5025738;28;20220;-88
2022/11/18 07:56:33;;;;;;;1.47;0.47;;;13.30;83.40;13.30;94857.00;;;;5013095;28;20190;-88
2022/11/18 07:59:01;;;;;;;0.70;0.40;;;13.30;83.50;13.30;94863.00;;;;5022477;28;20228;-87
2022/11/18 08:01:29;;;;;;;0.40;0.40;;;13.20;84.20;13.30;94855.00;;;;5019622;28;20297;-88
2022/11/18 08:03:57;;;;;;;2.73;0.83;;;13.20;83.50;13.30;94861.00;;;;5011747;28;20225;-88
2022/11/18 08:06:26;;;;;;;0.50;0.30;;;13.20;83.50;13.30;94870.00;;;;5015774;28;20600;-90
2022/11/18 08:08:53;;;;;;;1.40;0.43;;;13.20;83.70;13.30;94873.00;;;;5011372;28;20286;-88
2022/11/18 08:11:20;;;;;;;0.83;0.40;;;13.20;83.60;13.30;94874.00;;;;5024770;28;20198;-89
2022/11/18 08:13:47;;;;;;;0.57;0.30;;;13.20;83.60;13.30;94891.00;;;;5014466;28;20220;-89
2022/11/18 08:16:17;;;;;;;0.30;0.30;;;13.20;83.60;13.30;94888.00;;;;5011728;28;20308;-88
2022/11/18 08:18:45;;;;;;;1.13;0.30;;;13.20;83.60;13.30;94887.00;;;;5016759;28;20237;-87
2022/11/18 08:21:13;;;;;;;1.00;0.40;;;13.20;83.40;13.30;94888.00;;;;5027362;28;20555;-88
2022/11/18 08:23:42;;;;;;;0.40;0.30;;;13.20;83.30;13.20;94893.00;;;;5022426;28;20214;-88
2022/11/18 08:26:12;;;;;;;0.33;0.20;;;13.20;83.00;13.20;94892.00;;;;5021979;28;20424;-90
2022/11/18 08:28:39;;;;;;;0.30;0.23;;;13.10;82.90;13.20;94894.00;;;;5023770;28;20201;-89
2022/11/18 08:31:11;;;;;;;0.30;0.30;;;13.10;82.90;13.10;94896.00;;;;5030177;28;20284;-88
2022/11/18 08:33:38;;;;;;;0.10;0.10;;;13.10;82.90;13.10;94906.00;;;;5024936;28;20217;-89
2022/11/18 08:36:08;;;;;;;0.20;0.10;;;13.10;83.70;13.10;94909.00;;;;5021325;28;20228;-89
2022/11/18 08:38:36;;;;;;;0.27;0.20;;;13.10;82.90;13.10;94917.00;;;;5025747;28;20522;-89
2022/11/18 08:41:06;;;;;;;0.40;0.20;;;13.00;82.70;13.10;94922.00;;;;5024955;28;20676;-89
2022/11/18 08:43:33;;;;;;;0.87;0.20;;;13.00;82.70;13.10;94918.00;;;;5023495;28;20583;-90
2022/11/18 08:46:00;;;;;;;0.50;0.20;;;13.00;83.40;13.10;94923.00;;;;5021401;28;20202;-89
2022/11/18 08:48:27;;;;;;;0.20;0.20;;;13.00;82.60;13.00;94917.00;;;;5024076;28;20197;-88
2022/11/18 08:50:55;;;;;;;0.63;0.20;;;13.00;82.40;13.00;94921.00;;;;5021854;28;20225;-87
2022/11/18 08:53:22;;;;;;;0.80;0.10;;;13.00;82.50;13.00;94911.00;;;;5024054;28;20764;-87
2022/11/18 08:55:55;;;;;;;0.00;0.00;;;12.90;82.40;13.00;94920.00;;;;5023537;28;20261;-89
2022/11/18 08:58:29;;;;;;;2.30;0.30;;;12.90;82.40;13.00;94926.00;;;;5028465;28;20906;-91
2022/11/18 09:00:56;;;;;;;0.10;0.10;;;12.90;82.30;12.90;94924.00;;;;5019696;28;20246;-88
2022/11/18 09:03:23;;;;;;;0.10;0.10;;;12.90;82.90;12.90;94919.00;;;;5021288;28;20308;-88
2022/11/18 09:05:51;;;;;;;0.10;0.10;;;12.90;82.00;12.90;94927.00;;;;5020507;28;20384;-89
2022/11/18 09:08:18;;;;;;;0.77;0.10;;;12.80;81.90;12.90;94924.00;;;;5021501;28;20624;-89
2022/11/18 09:10:45;;;;;;;0.10;0.10;;;12.80;81.70;12.80;94930.00;;;;5020985;28;20202;-88
2022/11/18 09:13:13;;;;;;;0.10;0.10;;;12.80;82.00;12.80;94934.00;;;;5019727;28;20225;-87
2022/11/18 09:15:41;;;;;;;0.07;0.07;;;12.80;82.00;12.80;94926.00;;;;5017819;28;20233;-89
2022/11/18 09:18:09;;;;;;;1.60;0.10;;;12.80;82.00;12.80;94920.00;;;;5022581;28;20648;-89
2022/11/18 09:20:36;;;;;;;0.20;0.20;;;12.70;82.00;12.80;94932.00;;;;5024168;28;20232;-89
2022/11/18 09:23:03;;;;;;;0.10;0.10;;;12.70;82.10;12.80;94930.00;;;;5021176;28;20259;-89
2022/11/18 09:25:30;;;;;;;0.03;0.03;;;12.70;82.40;12.80;94928.00;;;;5025236;28;20193;-89
2022/11/18 09:27:57;;;;;;;0.27;0.20;;;12.70;82.50;12.80;94931.00;;;;5018363;28;20288;-89
2022/11/18 09:30:25;;;;;;;3.57;0.40;;;12.70;82.40;12.80;94935.00;;;;5027516;28;20205;-89
2022/11/18 09:32:54;;;;;;;0.10;0.10;;;12.70;82.30;12.90;94942.00;;;;5039047;23;20316;-81
2022/11/18 09:35:21;;;;;;;0.90;0.40;;;12.70;82.50;12.90;94948.00;;;;5034248;28;20316;-81
2022/11/18 09:37:48;;;;;;;0.20;0.20;;;12.70;82.40;12.90;94941.00;;;;5017564;28;20638;-81
2022/11/18 09:40:18;;;;;;;0.00;0.00;;;12.70;82.30;12.90;94938.00;;;;4999270;28;20265;-81
2022/11/18 09:42:59;;;;;;;0.30;0.10;;;12.80;82.20;12.90;94939.00;;;;5016461;28;20245;-81
2022/11/18 09:45:36;;;;;;;1.13;0.20;;;12.70;81.80;12.80;94953.00;;;;5026418;28;20243;-81
2022/11/18 09:48:17;;;;;;;0.50;0.20;;;12.70;81.90;12.80;94951.00;;;;5030168;28;20667;-81
2022/11/18 09:50:44;;;;;;;0.20;0.20;;;12.70;81.40;12.80;94956.00;;;;5015307;28;20245;-84
2022/11/18 09:53:26;;;;;;;0.10;0.10;;;12.70;81.60;12.80;94966.00;;;;5024470;28;20246;-84
2022/11/18 09:55:55;;;;;;;0.10;0.10;;;12.70;81.50;12.80;94969.00;;;;5026862;28;20240;-84
2022/11/18 09:58:32;;;;;;;0.10;0.10;;;12.70;81.90;12.80;94980.00;;;;5014566;28;20617;-84
2022/11/18 10:01:00;;;;;;;0.30;0.30;;;12.70;81.50;12.90;94972.00;;;;5015909;28;20655;-81
2022/11/18 10:03:32;;;;;;;1.70;0.30;;;12.70;81.60;12.90;94980.00;;;;5019559;28;20232;-82
2022/11/18 10:06:16;;;;;;;0.20;0.10;;;12.70;81.60;12.90;94981.00;;;;5026553;28;20300;-81
2022/11/18 10:08:58;;;;;;;0.27;0.10;;;12.70;81.70;12.90;94974.00;;;;5030948;28;20193;-81
2022/11/18 10:11:34;;;;;;;0.30;0.30;;;12.70;81.90;12.90;94978.00;;;;5026513;28;20201;-82
2022/11/18 10:14:18;;;;;;;0.83;0.80;;;12.80;82.00;12.90;94977.00;;;;5020879;28;20243;-81
2022/11/18 10:16:57;;;;;;;0.50;0.50;;;12.80;81.90;12.90;94976.00;;;;5033713;28;20252;-81
2022/11/18 10:19:34;;;;;;;5.73;3.70;;;12.80;81.90;12.90;94975.00;;;;5030114;28;20201;-81
2022/11/18 10:22:21;;;;;;;3.80;1.87;;;12.80;82.10;13.00;94980.00;;;;5026292;28;20678;-81
2022/11/18 10:24:52;;;;;;;0.80;0.70;;;12.80;82.10;13.00;94985.00;;;;5029577;28;20252;-81
2022/11/18 10:27:20;;;;;;;1.70;0.40;;;12.80;82.40;13.10;94990.00;;;;5025118;28;20230;-81
2022/11/18 10:29:55;;;;;;;2.20;0.30;;;12.90;82.50;13.10;94990.00;;;;5029531;28;20657;-81
2022/11/18 10:32:22;;;;;;;0.20;0.20;;;12.90;82.40;13.10;94991.00;;;;5033754;28;20232;-81
2022/11/18 10:34:53;;;;;;;0.10;0.10;;;12.90;82.50;13.20;94992.00;;;;5021221;28;20658;-81
2022/11/18 10:37:27;;;;;;;0.37;0.30;;;13.00;82.30;13.20;94985.00;;;;5024732;28;20228;-81
2022/11/18 10:39:57;;;;;;;0.20;0.20;;;13.00;82.30;13.20;95000.00;;;;5023135;28;20277;-81
2022/11/18 10:42:29;;;;;;;0.13;0.10;;;13.00;82.50;13.30;94990.00;;;;5031221;28;20194;-81
2022/11/18 10:45:16;;;;;;;3.23;0.40;;;13.00;82.40;13.30;94986.00;;;;5026240;28;20629;-81
2022/11/18 10:47:43;;;;;;;0.97;0.20;;;13.10;82.40;13.40;94986.00;;;;5022578;28;20221;-81
2022/11/18 10:50:33;;;;;;;0.10;0.10;;;13.10;82.40;13.40;94991.00;;;;5028818;28;20209;-82
2022/11/18 10:53:01;;;;;;;1.80;0.10;;;13.10;82.10;13.40;94990.00;;;;5033258;28;20297;-82
2022/11/18 10:55:29;;;;;;;0.27;0.13;;;13.20;82.60;13.50;94983.00;;;;5031375;28;20236;-82
2022/11/18 10:58:02;;;;;;;0.37;0.20;;;13.20;82.60;13.50;94985.00;;;;5033675;28;20202;-82
2022/11/18 11:00:46;;;;;;;0.93;0.20;;;13.20;82.70;13.60;94976.00;;;;5027795;28;20228;-82
2022/11/18 11:03:29;;;;;;;4.60;0.40;;;13.30;82.70;13.60;94984.00;;;;5016624;28;20285;-81
2022/11/18 11:06:42;;;;;;;0.20;0.20;;;13.30;82.60;13.60;94991.00;;;;5028011;28;20269;-81
2022/11/18 11:09:25;;;;;;;4.20;0.60;;;13.40;81.80;13.70;94994.00;;;;5016463;28;20217;-81
2022/11/18 11:12:11;;;;;;;0.20;0.20;;;13.40;82.20;13.70;94985.00;;;;5020621;28;20695;-81
2022/11/18 11:14:53;;;;;;;0.20;0.10;;;13.40;81.60;13.70;94987.00;;;;5037447;28;20336;-81
2022/11/18 11:17:29;;;;;;;0.87;0.20;;;13.40;81.40;13.70;94989.00;;;;5035140;28;20247;-81
2022/11/18 11:20:05;;;;;;;0.27;0.17;;;13.40;81.70;13.70;94992.00;;;;5029509;28;20233;-81
2022/11/18 11:22:34;;;;;;;0.17;0.00;;;13.50;82.30;13.70;94999.00;;;;5030945;28;20624;-81
2022/11/18 11:25:02;;;;;;;0.10;0.00;;;13.50;81.10;13.70;94995.00;;;;5032554;28;20280;-81